Terminal Aerodrome Forecast
Issued by NWS Chicago, IL

Home | Current Version | Previous Version | Graphics & Text | Print | Product List | Glossary On
Versions: 1 2 3 4 5 6 7 8 9 10 11 12 13 14 15 16 17 18 19 20 21 22 23 24
640
FTUS43 KLOT 261452 AAA
TAFRFD
TAF AMD
KRFD 261452Z 2615/2712 13012KT P6SM SCT060 BKN120
     FM261800 12012KT 6SM -SHRA VCTS SCT020CB BKN035
     FM262200 11010KT P6SM VCSH SCT010 BKN020
     FM270000 03008KT P6SM SCT020 BKN030
     FM270400 03005KT 6SM BR SCT050=

USA.gov is the U.S. government's official web portal to all federal, state and local government web resources and services.